createdAt,value
2023-03-11T00:01:18.765Z,99641.63
2023-03-11T00:03:48.907Z,99643.50
2023-03-11T00:06:18.128Z,99642.09
2023-03-11T00:08:47.197Z,99648.19
2023-03-11T00:11:17.737Z,99653.63
2023-03-11T00:13:46.748Z,99665.84
2023-03-11T00:16:15.798Z,99669.34
2023-03-11T00:18:44.883Z,99682.22
2023-03-11T00:21:17.384Z,99694.22
2023-03-11T00:23:47.190Z,99687.09
2023-03-11T00:26:17.641Z,99689.81
2023-03-11T00:28:48.446Z,99700.13
2023-03-11T00:31:17.641Z,99696.31
2023-03-11T00:33:46.824Z,99708.22
2023-03-11T00:36:25.143Z,99715.47
2023-03-11T00:38:54.419Z,99717.13
2023-03-11T00:41:24.938Z,99720.53
2023-03-11T00:43:53.957Z,99729.22
2023-03-11T00:46:23.078Z,99734.06
2023-03-11T00:48:52.836Z,99734.25
2023-03-11T00:51:22.007Z,99738.50
2023-03-11T00:53:51.112Z,99738.59
2023-03-11T00:56:20.663Z,99747.16
2023-03-11T00:58:51.101Z,99754.66
2023-03-11T01:01:21.379Z,99754.06
2023-03-11T01:03:50.961Z,99759.34
2023-03-11T01:06:20.080Z,99769.47
2023-03-11T01:08:49.098Z,99764.56
2023-03-11T01:11:18.978Z,99772.13
2023-03-11T01:13:48.209Z,99783.84
2023-03-11T01:16:18.664Z,99785.38
2023-03-11T01:18:47.853Z,99787.59
2023-03-11T01:21:17.038Z,99790.19
2023-03-11T01:23:46.317Z,99790.28
2023-03-11T01:26:15.718Z,99794.34
2023-03-11T01:28:44.834Z,99805.59
2023-03-11T01:31:14.050Z,99808.81
2023-03-11T01:33:44.499Z,99819.22
2023-03-11T01:36:14.635Z,99814.72
2023-03-11T01:38:43.691Z,99816.47
2023-03-11T01:41:13.694Z,99824.47
2023-03-11T01:43:51.113Z,99827.78
2023-03-11T01:46:26.246Z,99830.44
2023-03-11T01:48:58.559Z,99829.72
2023-03-11T01:51:33.798Z,99835.34
2023-03-11T01:54:06.365Z,99836.63
2023-03-11T01:56:36.460Z,99835.53
2023-03-11T01:59:07.231Z,99843.00
2023-03-11T02:01:38.131Z,99846.13
2023-03-11T02:04:08.846Z,99847.69
2023-03-11T02:06:38.700Z,99851.66
2023-03-11T02:09:08.645Z,99847.59
2023-03-11T02:11:37.834Z,99856.06
2023-03-11T02:14:09.873Z,99857.72
2023-03-11T02:16:39.177Z,99858.91
2023-03-11T02:19:19.890Z,99857.16
2023-03-11T02:21:49.926Z,99874.75
2023-03-11T02:24:25.189Z,99877.72
2023-03-11T02:26:59.200Z,99890.81
2023-03-11T02:29:30.328Z,99892.28
2023-03-11T02:32:02.477Z,99889.41
2023-03-11T02:34:34.180Z,99900.16
2023-03-11T02:37:07.217Z,99910.03
2023-03-11T02:39:38.306Z,99919.25
2023-03-11T02:42:13.990Z,99928.41
2023-03-11T02:44:48.000Z,99922.78
2023-03-11T02:47:17.614Z,99937.09
2023-03-11T02:49:46.832Z,99938.91
2023-03-11T02:52:15.937Z,99937.41
2023-03-11T02:54:44.941Z,99945.81
2023-03-11T02:57:15.333Z,99953.47
2023-03-11T02:59:44.362Z,99955.63
2023-03-11T03:02:15.582Z,99955.03
2023-03-11T03:04:44.996Z,99965.03
2023-03-11T03:07:14.058Z,99970.09
2023-03-11T03:09:43.191Z,99975.84
2023-03-11T03:12:12.411Z,99980.69
2023-03-11T03:14:42.975Z,99980.16
2023-03-11T03:17:12.914Z,99974.53
2023-03-11T03:19:42.078Z,99987.84
2023-03-11T03:22:11.248Z,99996.22
2023-03-11T03:24:40.286Z,100004.16
2023-03-11T03:27:09.476Z,100009.22
2023-03-11T03:29:39.114Z,100009.19
2023-03-11T03:32:09.968Z,100019.63
2023-03-11T03:34:39.152Z,100016.38
2023-03-11T03:37:08.204Z,100021.78
2023-03-11T03:39:37.260Z,100026.94
2023-03-11T03:42:06.857Z,100029.69
2023-03-11T03:44:39.013Z,100034.56
2023-03-11T03:47:09.579Z,100040.56
2023-03-11T03:49:39.272Z,100047.63
2023-03-11T03:52:10.351Z,100048.28
2023-03-11T03:54:40.724Z,100056.19
2023-03-11T03:57:10.206Z,100055.03
2023-03-11T03:59:46.285Z,100061.69
2023-03-11T04:02:17.090Z,100054.22
2023-03-11T04:04:47.110Z,100062.00
2023-03-11T04:07:16.388Z,100064.34
2023-03-11T04:09:46.016Z,100066.00
2023-03-11T04:12:18.108Z,100066.66
2023-03-11T04:14:48.709Z,100073.16
2023-03-11T04:17:19.137Z,100078.13
2023-03-11T04:19:48.923Z,100079.63
2023-03-11T04:22:18.284Z,100082.16
2023-03-11T04:24:47.898Z,100073.50
2023-03-11T04:27:16.981Z,100075.50
2023-03-11T04:29:46.034Z,100075.66
2023-03-11T04:32:15.231Z,100081.94
2023-03-11T04:34:46.615Z,100086.91
2023-03-11T04:37:17.105Z,100084.09
2023-03-11T04:39:46.577Z,100081.94
2023-03-11T04:42:15.732Z,100092.03
2023-03-11T04:44:46.160Z,100094.38
2023-03-11T04:47:15.346Z,100092.25
2023-03-11T04:49:45.827Z,100097.06
2023-03-11T04:52:15.270Z,100104.78
2023-03-11T04:54:44.793Z,100118.13
2023-03-11T04:57:14.030Z,100118.19
2023-03-11T04:59:45.719Z,100116.31
2023-03-11T05:02:16.676Z,100123.66
2023-03-11T05:04:54.704Z,100116.47
2023-03-11T05:07:24.220Z,100118.66
2023-03-11T05:09:54.096Z,100137.75
2023-03-11T05:12:23.141Z,100143.72
2023-03-11T05:14:54.949Z,100148.78
2023-03-11T05:17:25.035Z,100157.97
2023-03-11T05:19:57.518Z,100161.38
2023-03-11T05:22:31.963Z,100161.38
2023-03-11T05:25:01.214Z,100162.50
2023-03-11T05:27:30.482Z,100168.56
2023-03-11T05:30:00.131Z,100189.84
2023-03-11T05:32:32.386Z,100175.22
2023-03-11T05:35:03.004Z,100186.81
2023-03-11T05:37:33.155Z,100198.34
2023-03-11T05:40:06.689Z,100205.59
2023-03-11T05:42:36.699Z,100203.94
2023-03-11T05:45:07.002Z,100209.81
2023-03-11T05:47:37.009Z,100210.50
2023-03-11T05:50:10.048Z,100214.38
2023-03-11T05:52:40.025Z,100221.06
2023-03-11T05:55:12.166Z,100224.13
2023-03-11T05:57:43.066Z,100227.38
2023-03-11T06:00:13.133Z,100233.06
2023-03-11T06:02:50.385Z,100231.84
2023-03-11T06:05:22.909Z,100227.78
2023-03-11T06:07:53.595Z,100228.41
2023-03-11T06:10:24.583Z,100238.44
2023-03-11T06:12:54.438Z,100239.91
2023-03-11T06:15:29.654Z,100234.16
2023-03-11T06:17:59.525Z,100238.81
2023-03-11T06:20:30.207Z,100244.22
2023-03-11T06:22:59.391Z,100253.84
2023-03-11T06:25:29.564Z,100255.56
2023-03-11T06:27:58.808Z,100262.22
2023-03-11T06:30:27.985Z,100262.34
2023-03-11T06:33:17.364Z,100267.72
2023-03-11T06:35:58.512Z,100273.00
2023-03-11T06:38:28.071Z,100276.03
2023-03-11T06:41:00.956Z,100281.31
2023-03-11T06:43:31.198Z,100286.84
2023-03-11T06:46:02.332Z,100296.34
2023-03-11T06:48:31.628Z,100301.72
2023-03-11T06:51:03.100Z,100296.91
2023-03-11T06:53:33.088Z,100310.59
2023-03-11T06:56:04.614Z,100315.63
2023-03-11T06:58:38.751Z,100315.38
2023-03-11T07:01:11.926Z,100324.53
2023-03-11T07:03:42.461Z,100328.91
2023-03-11T07:06:16.563Z,100327.22
2023-03-11T07:08:47.370Z,100329.56
2023-03-11T07:11:19.270Z,100326.69
2023-03-11T07:13:51.000Z,100334.56
2023-03-11T07:16:21.842Z,100340.94
2023-03-11T07:18:54.070Z,100336.91
2023-03-11T07:21:25.292Z,100335.72
2023-03-11T07:23:55.822Z,100344.44
2023-03-11T07:26:26.038Z,100349.16
2023-03-11T07:28:57.391Z,100350.44
2023-03-11T07:31:29.251Z,100356.06
2023-03-11T07:34:01.516Z,100357.25
2023-03-11T07:36:33.008Z,100364.97
2023-03-11T07:39:04.920Z,100364.81
2023-03-11T07:41:35.763Z,100366.03
2023-03-11T07:44:06.572Z,100380.75
2023-03-11T07:46:36.334Z,100376.34
2023-03-11T07:49:05.814Z,100385.59
2023-03-11T07:51:38.448Z,100387.50
2023-03-11T07:54:07.969Z,100399.13
2023-03-11T07:56:38.840Z,100403.19
2023-03-11T07:59:08.441Z,100403.13
2023-03-11T08:01:40.641Z,100413.59
2023-03-11T08:04:14.411Z,100417.03
2023-03-11T08:06:47.422Z,100419.59
2023-03-11T08:09:16.837Z,100423.09
2023-03-11T08:11:47.153Z,100426.00
2023-03-11T08:14:17.182Z,100430.72
2023-03-11T08:16:46.180Z,100426.56
2023-03-11T08:19:15.710Z,100444.84
2023-03-11T08:21:47.317Z,100445.69
2023-03-11T08:24:16.802Z,100454.03
2023-03-11T08:26:46.196Z,100463.75
2023-03-11T08:29:15.268Z,100458.38
2023-03-11T08:31:44.320Z,100459.53
2023-03-11T08:34:13.678Z,100462.66
2023-03-11T08:36:43.275Z,100469.47
2023-03-11T08:39:13.720Z,100472.28
2023-03-11T08:41:42.794Z,100469.75
2023-03-11T08:44:11.847Z,100472.78
2023-03-11T08:46:41.057Z,100483.00
2023-03-11T08:49:10.272Z,100491.00
2023-03-11T08:51:39.396Z,100489.25
2023-03-11T08:54:08.521Z,100493.19
2023-03-11T08:56:38.980Z,100492.41
2023-03-11T08:59:08.533Z,100500.41
2023-03-11T09:01:37.590Z,100495.44
2023-03-11T09:04:07.076Z,100493.97
2023-03-11T09:06:36.400Z,100505.50
2023-03-11T09:09:05.689Z,100508.34
2023-03-11T09:11:37.317Z,100509.06
2023-03-11T09:14:07.974Z,100498.97
2023-03-11T09:16:37.027Z,100510.91
2023-03-11T09:19:07.464Z,100503.34
2023-03-11T09:21:37.390Z,100504.25
2023-03-11T09:24:07.359Z,100522.03
2023-03-11T09:26:36.579Z,100524.88
2023-03-11T09:29:06.951Z,100523.88
2023-03-11T09:31:36.024Z,100528.06
2023-03-11T09:34:05.068Z,100529.53
2023-03-11T09:36:34.648Z,100528.94
2023-03-11T09:39:03.698Z,100534.94
2023-03-11T09:41:55.222Z,100531.56
2023-03-11T09:44:35.217Z,100536.22
2023-03-11T09:47:37.679Z,100539.47
2023-03-11T09:50:21.399Z,100540.94
2023-03-11T09:53:00.745Z,100536.72
2023-03-11T09:55:37.690Z,100543.59
2023-03-11T09:58:14.099Z,100541.19
2023-03-11T10:00:45.236Z,100536.00
2023-03-11T10:03:30.004Z,100542.69
2023-03-11T10:06:12.637Z,100548.59
2023-03-11T10:08:48.591Z,100551.03
2023-03-11T10:11:28.506Z,100554.56
2023-03-11T10:14:11.770Z,100555.09
2023-03-11T10:16:51.494Z,100563.31
2023-03-11T10:19:31.950Z,100560.94
2023-03-11T10:22:13.512Z,100567.25
2023-03-11T10:24:53.760Z,100570.44
2023-03-11T10:27:27.639Z,100572.69
2023-03-11T10:30:03.256Z,100569.38
2023-03-11T10:32:41.015Z,100569.78
2023-03-11T10:35:18.713Z,100566.28
2023-03-11T10:37:54.459Z,100576.28
2023-03-11T10:40:31.407Z,100566.34
2023-03-11T10:43:04.105Z,100567.59
2023-03-11T10:45:41.360Z,100567.91
2023-03-11T10:48:13.451Z,100574.00
2023-03-11T10:50:53.402Z,100563.66
2023-03-11T10:53:23.208Z,100560.94
2023-03-11T10:55:54.222Z,100564.28
2023-03-11T10:58:25.007Z,100563.78
2023-03-11T11:01:06.193Z,100569.69
2023-03-11T11:03:37.246Z,100571.91
2023-03-11T11:06:08.198Z,100568.78
2023-03-11T11:08:37.324Z,100567.09
2023-03-11T11:11:20.845Z,100574.13
2023-03-11T11:13:58.471Z,100564.28
2023-03-11T11:16:28.209Z,100563.66
2023-03-11T11:19:04.356Z,100555.34
2023-03-11T11:21:37.136Z,100570.44
2023-03-11T11:24:16.336Z,100576.16
2023-03-11T11:27:05.353Z,100556.69
2023-03-11T11:29:35.152Z,100567.59
2023-03-11T11:32:25.430Z,100562.88
2023-03-11T11:35:03.980Z,100566.66
2023-03-11T11:37:36.694Z,100562.56
2023-03-11T11:40:11.488Z,100561.63
2023-03-11T11:42:42.295Z,100555.81
2023-03-11T11:45:17.366Z,100557.94
2023-03-11T11:47:50.012Z,100558.56
2023-03-11T11:50:28.956Z,100561.41
2023-03-11T11:53:04.573Z,100556.53
2023-03-11T11:55:34.934Z,100562.09
2023-03-11T11:58:05.454Z,100557.78
2023-03-11T12:00:43.646Z,100557.69
2023-03-11T12:03:45.515Z,100550.41
2023-03-11T12:06:25.455Z,100550.81
2023-03-11T12:09:14.708Z,100549.91
2023-03-11T12:11:50.483Z,100549.00
2023-03-11T12:14:26.425Z,100550.50
2023-03-11T12:17:00.216Z,100553.16
2023-03-11T12:19:41.030Z,100544.47
2023-03-11T12:22:46.950Z,100540.78
2023-03-11T12:25:26.534Z,100532.72
2023-03-11T12:28:04.149Z,100543.69
2023-03-11T12:30:38.232Z,100545.44
2023-03-11T12:33:14.735Z,100542.53
2023-03-11T12:35:50.810Z,100546.84
2023-03-11T12:38:27.979Z,100543.34
2023-03-11T12:41:06.870Z,100536.41
2023-03-11T12:44:03.450Z,100533.28
2023-03-11T12:47:11.870Z,100537.00
2023-03-11T12:49:43.217Z,100523.97
2023-03-11T12:52:22.981Z,100531.69
2023-03-11T12:55:38.116Z,100537.25
2023-03-11T12:58:45.481Z,100535.09
2023-03-11T13:01:25.786Z,100536.09
2023-03-11T13:04:24.428Z,100529.03
2023-03-11T13:07:26.694Z,100538.84
2023-03-11T13:10:12.900Z,100546.75
2023-03-11T13:12:44.629Z,100542.91
2023-03-11T13:15:37.945Z,100532.47
2023-03-11T13:18:18.857Z,100535.22
2023-03-11T13:20:51.523Z,100550.13
2023-03-11T13:23:30.995Z,100541.13
2023-03-11T13:26:41.555Z,100541.97
2023-03-11T13:29:45.442Z,100541.03
2023-03-11T13:32:30.934Z,100542.97
2023-03-11T13:35:11.876Z,100548.44
2023-03-11T13:37:55.227Z,100549.53
2023-03-11T13:40:34.011Z,100554.09
2023-03-11T13:43:06.495Z,100544.50
2023-03-11T13:45:37.472Z,100549.59
2023-03-11T13:48:15.147Z,100559.38
2023-03-11T13:50:50.229Z,100546.31
2023-03-11T13:53:23.751Z,100550.22
2023-03-11T13:55:52.910Z,100552.03
2023-03-11T13:58:25.683Z,100552.72
2023-03-11T14:00:56.498Z,100557.19
2023-03-11T14:03:27.897Z,100553.16
2023-03-11T14:06:02.970Z,100544.91
2023-03-11T14:08:34.869Z,100563.47
2023-03-11T14:11:05.514Z,100558.34
2023-03-11T14:13:41.319Z,100569.88
2023-03-11T14:16:15.657Z,100562.09
2023-03-11T14:18:46.413Z,100564.88
2023-03-11T14:21:17.976Z,100560.59
2023-03-11T14:23:49.494Z,100572.03
2023-03-11T14:26:21.781Z,100565.69
2023-03-11T14:28:54.215Z,100561.47
2023-03-11T14:31:29.957Z,100567.97
2023-03-11T14:34:04.326Z,100562.06
2023-03-11T14:36:42.452Z,100569.47
2023-03-11T14:39:33.142Z,100565.22
2023-03-11T14:42:07.788Z,100564.88
2023-03-11T14:44:42.256Z,100573.00
2023-03-11T14:47:18.282Z,100570.72
2023-03-11T14:49:49.657Z,100564.59
2023-03-11T14:52:22.487Z,100576.63
2023-03-11T14:54:53.701Z,100575.41
2023-03-11T14:57:26.784Z,100578.13
2023-03-11T14:59:58.720Z,100574.16
2023-03-11T15:02:43.693Z,100578.88
2023-03-11T15:05:21.008Z,100573.34
2023-03-11T15:07:52.610Z,100572.50
2023-03-11T15:10:21.869Z,100576.88
2023-03-11T15:12:51.227Z,100581.66
2023-03-11T15:15:31.258Z,100577.19
2023-03-11T15:18:01.740Z,100577.72
2023-03-11T15:20:32.985Z,100583.03
2023-03-11T15:23:04.773Z,100580.94
2023-03-11T15:25:35.438Z,100582.41
2023-03-11T15:28:24.239Z,100583.34
2023-03-11T15:31:31.021Z,100570.00
2023-03-11T15:34:25.053Z,100567.31
2023-03-11T15:37:03.574Z,100568.75
2023-03-11T15:39:47.313Z,100565.81
2023-03-11T15:42:21.449Z,100561.47
2023-03-11T15:45:10.004Z,100568.63
2023-03-11T15:47:40.971Z,100579.34
2023-03-11T15:50:24.792Z,100626.81
2023-03-11T15:52:56.859Z,100639.19
2023-03-11T15:55:27.690Z,100603.22
2023-03-11T15:58:03.203Z,100588.06
2023-03-11T16:00:32.514Z,100611.66
2023-03-11T16:03:03.037Z,100614.09
2023-03-11T16:05:32.175Z,100607.97
2023-03-11T16:08:01.278Z,100609.31
2023-03-11T16:10:30.281Z,100613.13
2023-03-11T16:12:59.324Z,100607.34
2023-03-11T16:15:31.090Z,100601.28
2023-03-11T16:18:04.028Z,100601.66
2023-03-11T16:20:38.639Z,100597.22
2023-03-11T16:23:13.827Z,100602.31
2023-03-11T16:25:42.894Z,100607.88
2023-03-11T16:28:14.086Z,100597.31
2023-03-11T16:30:43.620Z,100607.03
2023-03-11T16:33:14.025Z,100604.63
2023-03-11T16:35:43.313Z,100617.00
2023-03-11T16:38:12.617Z,100615.13
2023-03-11T16:40:41.834Z,100612.78
2023-03-11T16:43:13.516Z,100623.28
2023-03-11T16:47:48.409Z,100626.00
2023-03-11T16:50:18.504Z,100616.09
2023-03-11T16:52:47.767Z,100621.53
2023-03-11T16:55:17.723Z,100625.06
2023-03-11T16:57:47.322Z,100623.72
2023-03-11T17:00:18.219Z,100631.25
2023-03-11T17:02:48.826Z,100628.97
2023-03-11T17:05:18.465Z,100624.31
2023-03-11T17:07:47.563Z,100634.66
2023-03-11T17:10:16.596Z,100632.41
2023-03-11T17:12:45.635Z,100631.25
2023-03-11T17:15:14.742Z,100631.94
2023-03-11T17:17:43.714Z,100631.50
2023-03-11T17:20:14.865Z,100639.78
2023-03-11T17:22:43.903Z,100640.88
2023-03-11T17:25:12.935Z,100639.84
2023-03-11T17:27:42.001Z,100642.28
2023-03-11T17:30:12.723Z,100639.00
2023-03-11T17:32:41.863Z,100641.13
2023-03-11T17:35:12.848Z,100640.94
2023-03-11T17:37:41.921Z,100641.06
2023-03-11T17:40:12.022Z,100637.66
2023-03-11T17:42:41.237Z,100645.72
2023-03-11T17:45:11.194Z,100649.50
2023-03-11T17:47:40.253Z,100647.47
2023-03-11T17:50:10.207Z,100654.84
2023-03-11T17:52:40.587Z,100656.50
2023-03-11T17:55:10.648Z,100660.19
2023-03-11T17:57:45.601Z,100656.19
2023-03-11T18:00:15.812Z,100658.78
2023-03-11T18:02:44.869Z,100659.78
2023-03-11T18:05:14.025Z,100657.44
2023-03-11T18:07:44.459Z,100663.69
2023-03-11T18:10:18.414Z,100666.81
2023-03-11T18:12:48.484Z,100655.53
2023-03-11T18:15:19.497Z,100660.19
2023-03-11T18:17:49.608Z,100660.84
2023-03-11T18:20:18.936Z,100655.00
2023-03-11T18:22:49.313Z,100654.69
2023-03-11T18:25:18.398Z,100663.84
2023-03-11T18:27:47.395Z,100668.47
2023-03-11T18:30:16.617Z,100666.84
2023-03-11T18:32:45.804Z,100670.94
2023-03-11T18:35:17.330Z,100668.41
2023-03-11T18:37:47.664Z,100667.75
2023-03-11T18:40:16.778Z,100676.28
2023-03-11T18:42:45.867Z,100675.38
2023-03-11T18:45:14.946Z,100668.09
2023-03-11T18:47:43.961Z,100672.50
2023-03-11T18:50:13.664Z,100665.34
2023-03-11T18:52:42.690Z,100673.56
2023-03-11T18:55:13.264Z,100679.72
2023-03-11T18:57:43.299Z,100685.34
2023-03-11T19:00:13.325Z,100680.19
2023-03-11T19:02:42.388Z,100677.22
2023-03-11T19:05:12.221Z,100674.56
2023-03-11T19:07:41.309Z,100683.00
2023-03-11T19:10:14.836Z,100687.19
2023-03-11T19:12:44.939Z,100670.00
2023-03-11T19:15:14.902Z,100693.31
2023-03-11T19:17:45.509Z,100701.81
2023-03-11T19:20:19.066Z,100707.00
2023-03-11T19:22:48.184Z,100709.28
2023-03-11T19:25:21.085Z,100697.31
2023-03-11T19:27:50.095Z,100701.69
2023-03-11T19:30:19.666Z,100687.03
2023-03-11T19:32:51.897Z,100687.31
2023-03-11T19:35:21.856Z,100691.81
2023-03-11T19:37:56.747Z,100696.53
2023-03-11T19:40:29.972Z,100698.91
2023-03-11T19:42:59.284Z,100695.91
2023-03-11T19:45:29.556Z,100711.25
2023-03-11T19:47:59.906Z,100717.56
2023-03-11T19:50:29.060Z,100735.56
2023-03-11T19:52:58.095Z,100742.47
2023-03-11T19:55:28.542Z,100743.63
2023-03-11T19:57:57.674Z,100743.88
2023-03-11T20:00:29.266Z,100725.94
2023-03-11T20:02:58.469Z,100736.66
2023-03-11T20:05:27.839Z,100734.44
2023-03-11T20:07:57.058Z,100735.66
2023-03-11T20:10:27.613Z,100734.44
2023-03-11T20:13:02.473Z,100733.75
2023-03-11T20:15:32.324Z,100730.25
2023-03-11T20:18:03.560Z,100730.09
2023-03-11T20:20:33.533Z,100730.41
2023-03-11T20:23:02.937Z,100728.75
2023-03-11T20:25:34.844Z,100730.38
2023-03-11T20:28:04.044Z,100737.31
2023-03-11T20:30:33.244Z,100740.41
2023-03-11T20:33:02.680Z,100737.31
2023-03-11T20:35:31.768Z,100747.41
2023-03-11T20:38:02.718Z,100738.59
2023-03-11T20:40:33.425Z,100737.97
2023-03-11T20:43:02.894Z,100746.97
2023-03-11T20:45:31.938Z,100747.03
2023-03-11T20:48:01.093Z,100750.53
2023-03-11T20:50:30.326Z,100754.06
2023-03-11T20:52:59.450Z,100757.78
2023-03-11T20:55:28.556Z,100759.38
2023-03-11T20:57:58.996Z,100751.16
2023-03-11T21:00:28.184Z,100762.56
2023-03-11T21:02:57.303Z,100756.34
2023-03-11T21:05:26.683Z,100748.75
2023-03-11T21:07:55.880Z,100764.00
2023-03-11T21:10:24.949Z,100763.34
2023-03-11T21:12:54.008Z,100761.44
2023-03-11T21:15:24.436Z,100763.34
2023-03-11T21:17:53.473Z,100760.59
2023-03-11T21:20:22.920Z,100767.53
2023-03-11T21:22:51.916Z,100774.38
2023-03-11T21:25:21.227Z,100775.00
2023-03-11T21:27:50.405Z,100772.72
2023-03-11T21:30:19.741Z,100776.56
2023-03-11T21:32:50.386Z,100786.06
2023-03-11T21:35:19.703Z,100779.63
2023-03-11T21:37:48.795Z,100778.78
2023-03-11T21:40:18.184Z,100774.16
2023-03-11T21:42:47.438Z,100780.47
2023-03-11T21:45:17.350Z,100777.56
2023-03-11T21:47:46.781Z,100783.66
2023-03-11T21:50:17.433Z,100782.06
2023-03-11T21:52:46.685Z,100791.19
2023-03-11T21:55:15.809Z,100786.84
2023-03-11T21:57:45.152Z,100794.31
2023-03-11T22:00:14.918Z,100793.03
2023-03-11T22:02:44.099Z,100790.72
2023-03-11T22:05:13.352Z,100795.78
2023-03-11T22:07:43.989Z,100792.34
2023-03-11T22:10:13.506Z,100790.22
2023-03-11T22:12:43.016Z,100793.72
2023-03-11T22:15:12.834Z,100785.63
2023-03-11T22:17:42.086Z,100786.13
2023-03-11T22:20:13.479Z,100783.81
2023-03-11T22:22:44.013Z,100788.75
2023-03-11T22:25:13.104Z,100783.38
2023-03-11T22:27:42.315Z,100780.31
2023-03-11T22:30:15.282Z,100779.53
2023-03-11T22:32:44.928Z,100776.91
2023-03-11T22:35:14.223Z,100784.81
2023-03-11T22:37:44.955Z,100779.94
2023-03-11T22:40:14.631Z,100781.53
2023-03-11T22:42:43.712Z,100794.44
2023-03-11T22:45:13.202Z,100791.78
2023-03-11T22:47:42.513Z,100800.16
2023-03-11T22:50:12.239Z,100795.53
2023-03-11T22:52:41.291Z,100794.53
2023-03-11T22:55:12.245Z,100794.28
2023-03-11T22:57:41.318Z,100800.03
2023-03-11T23:00:17.007Z,100800.41
2023-03-11T23:02:46.852Z,100798.41
2023-03-11T23:05:16.686Z,100807.63
2023-03-11T23:07:45.984Z,100806.47
2023-03-11T23:10:19.728Z,100804.63
2023-03-11T23:12:50.169Z,100808.22
2023-03-11T23:15:20.216Z,100809.31
2023-03-11T23:17:49.268Z,100815.53
2023-03-11T23:20:18.886Z,100815.16
2023-03-11T23:22:47.921Z,100818.44
2023-03-11T23:25:19.412Z,100822.66
2023-03-11T23:27:48.410Z,100822.66
2023-03-11T23:30:18.891Z,100829.75
2023-03-11T23:32:47.963Z,100829.81
2023-03-11T23:35:17.004Z,100836.44
2023-03-11T23:37:49.051Z,100838.19
2023-03-11T23:40:19.787Z,100841.28
2023-03-11T23:42:50.646Z,100852.16
2023-03-11T23:45:19.862Z,100858.94
2023-03-11T23:47:48.868Z,100863.72
2023-03-11T23:50:18.433Z,100858.56
2023-03-11T23:52:47.487Z,100865.03
2023-03-11T23:55:18.010Z,100865.88
2023-03-11T23:57:47.095Z,100859.78
